Time;durP1;ratioP1;P1;durP2;ratioP2;P2;SDS_P1;SDS_P2;PMS_P1;PMS_P2;Temp;Humidity;BMP_temperature;BMP_pressure;BME280_temperature;BME280_humidity;BME280_pressure;Samples;Min_cycle;Max_cycle;Signal;HPM_P1;HPM_P2
2021/12/05 00:23:09;;;;;;;8.17;2.37;;;4.60;99.90;;;;;;5039346;28;20248;-52
2021/12/05 00:25:36;;;;;;;9.87;3.07;;;4.60;99.90;;;;;;5037498;28;20678;-53
2021/12/05 00:41:44;;;;;;;9.27;2.40;;;4.50;99.90;;;;;;5040390;28;20291;-51
2021/12/05 01:00:08;;;;;;;6.23;2.10;;;4.40;99.90;;;;;;5036643;28;20396;-53
2021/12/05 01:15:41;;;;;;;7.03;2.30;;;4.20;99.90;;;;;;5034697;28;20967;-52
2021/12/05 01:18:14;;;;;;;6.63;2.17;;;4.20;99.90;;;;;;5035353;28;20214;-52
2021/12/05 01:20:53;;;;;;;8.23;1.97;;;4.10;99.90;;;;;;5034545;28;20203;-52
2021/12/05 01:36:59;;;;;;;9.53;1.80;;;3.90;99.90;;;;;;5036385;28;20233;-52
2021/12/05 02:08:37;;;;;;;5.70;1.73;;;3.60;99.90;;;;;;5032808;28;20207;-51
2021/12/05 02:43:04;;;;;;;4.37;1.80;;;3.70;99.90;;;;;;5037140;28;20227;-51
2021/12/05 02:45:35;;;;;;;8.13;2.53;;;3.60;99.90;;;;;;5037197;28;20201;-52
2021/12/05 02:48:03;;;;;;;5.80;2.30;;;3.70;99.90;;;;;;5036609;28;21122;-53
2021/12/05 02:50:32;;;;;;;7.10;2.23;;;3.70;99.90;;;;;;5019103;28;20227;-52
2021/12/05 02:53:10;;;;;;;10.00;2.50;;;3.70;99.90;;;;;;5037002;28;20626;-54
2021/12/05 02:55:41;;;;;;;5.43;1.83;;;3.70;99.90;;;;;;5038399;28;20215;-53
2021/12/05 02:58:38;;;;;;;12.53;2.90;;;3.70;99.90;;;;;;5035443;28;20212;-51
2021/12/05 03:01:32;;;;;;;9.37;2.53;;;3.70;99.90;;;;;;5035645;28;20214;-52
2021/12/05 03:03:54;;;;;;;8.60;2.43;;;3.70;99.90;;;;;;5034051;28;20235;-54
2021/12/05 03:06:26;;;;;;;9.33;1.87;;;3.70;99.90;;;;;;5040120;28;20649;-53
2021/12/05 03:08:57;;;;;;;8.93;2.37;;;3.70;99.90;;;;;;5037783;28;20299;-52
2021/12/05 03:11:26;;;;;;;9.10;2.13;;;3.70;99.90;;;;;;5039850;28;20323;-52
2021/12/05 03:13:53;;;;;;;7.20;2.40;;;3.70;99.90;;;;;;5037051;28;20203;-53
2021/12/05 03:16:22;;;;;;;6.57;1.87;;;3.70;99.90;;;;;;5036362;28;20288;-50
2021/12/05 03:18:49;;;;;;;9.60;2.37;;;3.70;99.90;;;;;;5035673;28;20204;-53
2021/12/05 03:21:17;;;;;;;11.53;2.97;;;3.70;99.90;;;;;;5037074;28;20302;-52
2021/12/05 03:23:46;;;;;;;11.00;2.03;;;3.70;99.90;;;;;;5036292;28;20285;-52
2021/12/05 03:26:19;;;;;;;7.50;3.03;;;3.70;99.90;;;;;;5038052;28;20643;-56
2021/12/05 03:28:49;;;;;;;13.80;2.30;;;3.70;99.90;;;;;;5035703;28;20307;-53
2021/12/05 03:31:16;;;;;;;10.33;2.07;;;3.70;99.90;;;;;;5035963;28;20274;-54
2021/12/05 03:33:43;;;;;;;8.13;2.60;;;3.80;99.90;;;;;;5036557;28;20268;-53
2021/12/05 03:36:11;;;;;;;6.30;2.37;;;3.80;99.90;;;;;;5035637;28;20291;-53
2021/12/05 03:38:40;;;;;;;3.97;2.03;;;3.80;99.90;;;;;;5037215;28;20219;-51
2021/12/05 03:41:08;;;;;;;7.03;2.17;;;3.80;99.90;;;;;;5035294;28;20315;-53
2021/12/05 03:43:36;;;;;;;8.20;2.20;;;3.80;99.90;;;;;;5035173;28;20212;-52
2021/12/05 03:46:03;;;;;;;8.33;2.40;;;3.80;99.90;;;;;;5035007;28;20538;-54
2021/12/05 03:48:37;;;;;;;4.90;2.53;;;3.80;99.90;;;;;;5035215;28;20629;-52
2021/12/05 03:51:05;;;;;;;8.17;3.00;;;3.80;99.90;;;;;;5037277;28;20579;-53
2021/12/05 03:53:32;;;;;;;8.13;3.13;;;3.80;99.90;;;;;;5034608;28;20213;-53
2021/12/05 03:56:04;;;;;;;8.80;2.47;;;3.80;99.90;;;;;;5037388;28;20292;-52
2021/12/05 03:58:32;;;;;;;4.70;1.90;;;3.80;99.90;;;;;;5034899;28;20220;-54
2021/12/05 04:01:01;;;;;;;4.80;2.27;;;3.80;99.90;;;;;;5035831;28;20329;-53
2021/12/05 04:03:30;;;;;;;9.40;2.47;;;3.90;99.90;;;;;;5034274;28;20238;-53
2021/12/05 04:05:59;;;;;;;6.13;2.13;;;3.90;99.90;;;;;;5036576;28;20600;-50
2021/12/05 04:08:28;;;;;;;8.87;2.63;;;3.90;99.90;;;;;;5033428;28;20199;-52
2021/12/05 04:10:59;;;;;;;11.93;2.07;;;3.90;99.90;;;;;;5033909;28;20960;-51
2021/12/05 04:13:28;;;;;;;7.50;2.63;;;3.90;99.90;;;;;;5035295;28;20207;-53
2021/12/05 04:15:56;;;;;;;8.73;2.40;;;3.90;99.90;;;;;;5035575;28;20319;-52
2021/12/05 04:18:23;;;;;;;5.13;1.87;;;3.90;99.90;;;;;;5016242;28;20511;-54
2021/12/05 04:20:50;;;;;;;7.27;2.37;;;3.90;99.90;;;;;;5035051;28;20209;-52
2021/12/05 04:23:17;;;;;;;6.43;2.40;;;3.90;99.90;;;;;;5036820;28;20319;-52
2021/12/05 04:25:48;;;;;;;11.77;3.40;;;4.00;99.90;;;;;;5036374;28;20200;-51
2021/12/05 04:28:16;;;;;;;9.27;2.20;;;4.00;99.90;;;;;;5035807;28;20224;-52
2021/12/05 04:30:43;;;;;;;5.30;2.20;;;4.00;99.90;;;;;;5035156;28;20250;-53
2021/12/05 04:33:10;;;;;;;9.43;2.37;;;4.10;99.90;;;;;;5037694;28;20201;-53
2021/12/05 04:35:41;;;;;;;7.67;2.90;;;4.00;99.90;;;;;;5038014;28;20736;-54
2021/12/05 04:38:09;;;;;;;7.97;2.33;;;4.00;99.90;;;;;;5035202;28;20204;-53
2021/12/05 04:40:36;;;;;;;6.67;2.23;;;4.00;99.90;;;;;;5035901;28;20335;-54
2021/12/05 04:43:05;;;;;;;10.07;2.63;;;4.00;99.90;;;;;;5035059;28;20315;-52
2021/12/05 04:45:35;;;;;;;5.60;2.60;;;4.00;99.90;;;;;;5031987;28;20269;-52
2021/12/05 04:48:04;;;;;;;8.23;2.40;;;4.00;99.90;;;;;;5035767;28;20355;-53
2021/12/05 04:50:32;;;;;;;7.97;2.83;;;4.00;99.90;;;;;;5034825;28;20205;-52
2021/12/05 04:53:00;;;;;;;7.60;2.80;;;4.00;99.90;;;;;;5034600;28;20203;-54
2021/12/05 04:55:27;;;;;;;9.50;2.90;;;4.00;99.90;;;;;;5036089;28;20279;-53
2021/12/05 04:57:55;;;;;;;3.93;2.60;;;4.00;99.90;;;;;;5036065;28;20211;-54
2021/12/05 05:00:27;;;;;;;8.10;2.37;;;4.00;99.90;;;;;;5034238;28;20339;-52
2021/12/05 05:02:56;;;;;;;9.00;3.40;;;4.00;99.90;;;;;;5034319;28;20204;-50
2021/12/05 05:05:27;;;;;;;10.43;3.13;;;4.10;99.90;;;;;;5034765;28;20681;-54
2021/12/05 05:07:54;;;;;;;5.17;2.67;;;4.10;99.90;;;;;;5035480;28;20303;-53
2021/12/05 05:10:26;;;;;;;5.90;2.37;;;4.10;99.90;;;;;;5034985;28;20288;-53
2021/12/05 05:12:54;;;;;;;6.00;3.17;;;4.10;99.90;;;;;;5033435;28;20609;-53
2021/12/05 05:15:22;;;;;;;5.03;3.17;;;4.10;99.90;;;;;;5033854;28;20204;-53
2021/12/05 05:17:51;;;;;;;5.50;3.13;;;4.20;99.90;;;;;;5033724;28;21239;-52
2021/12/05 05:20:26;;;;;;;6.70;2.83;;;4.20;99.90;;;;;;5035417;28;20291;-51
2021/12/05 05:39:37;;;;;;;5.90;2.93;;;4.10;99.90;;;;;;5034124;28;20770;-54
2021/12/05 05:52:12;;;;;;;2.50;2.20;;;4.10;99.90;;;;;;5036209;28;20586;-53
2021/12/05 05:54:39;;;;;;;5.00;2.57;;;4.10;99.90;;;;;;5037581;28;20360;-54
2021/12/05 05:57:18;;;;;;;5.13;2.60;;;4.10;99.90;;;;;;5036090;28;20391;-53
2021/12/05 05:59:57;;;;;;;4.90;2.40;;;4.20;99.90;;;;;;5037653;28;20198;-54
2021/12/05 06:05:11;;;;;;;4.23;2.03;;;4.10;99.90;;;;;;5040933;28;20243;-52
2021/12/05 06:07:45;;;;;;;5.23;2.27;;;4.10;99.90;;;;;;5038176;28;20614;-52
2021/12/05 06:10:19;;;;;;;2.47;1.87;;;4.10;99.90;;;;;;5040804;28;20548;-52
2021/12/05 06:12:46;;;;;;;4.90;2.07;;;4.10;99.90;;;;;;5037977;28;20211;-53
2021/12/05 06:15:16;;;;;;;4.90;2.40;;;4.10;99.90;;;;;;5039518;28;20553;-52
2021/12/05 06:17:44;;;;;;;4.20;2.23;;;4.10;99.90;;;;;;5035674;28;20216;-54
2021/12/05 06:20:15;;;;;;;3.73;2.20;;;4.10;99.90;;;;;;5038606;28;20669;-54
2021/12/05 06:22:43;;;;;;;3.30;1.83;;;4.10;99.90;;;;;;5038552;28;20231;-52
2021/12/05 06:25:15;;;;;;;2.60;1.73;;;4.10;99.90;;;;;;5038363;28;20700;-52
2021/12/05 06:27:42;;;;;;;2.47;1.77;;;4.20;99.90;;;;;;5039095;28;20255;-52
2021/12/05 06:30:17;;;;;;;5.60;1.87;;;4.10;99.90;;;;;;5037458;28;20228;-54
2021/12/05 06:38:42;;;;;;;3.47;2.07;;;4.00;99.90;;;;;;5039488;28;20287;-51
2021/12/05 06:46:25;;;;;;;2.87;1.80;;;4.00;99.90;;;;;;5039899;28;20212;-53
2021/12/05 06:48:53;;;;;;;2.10;1.60;;;4.10;99.90;;;;;;5038060;28;20237;-54
2021/12/05 06:51:25;;;;;;;2.43;1.67;;;4.10;99.90;;;;;;5037772;28;20855;-54
2021/12/05 06:53:53;;;;;;;4.83;1.90;;;4.00;99.90;;;;;;5038861;28;20209;-53
2021/12/05 06:56:21;;;;;;;3.40;1.90;;;4.10;99.90;;;;;;5039626;28;20200;-52
2021/12/05 06:58:48;;;;;;;1.70;1.60;;;4.10;99.90;;;;;;5037363;28;20307;-53
2021/12/05 07:01:15;;;;;;;4.77;2.40;;;4.00;99.90;;;;;;5030709;28;20243;-51
2021/12/05 07:03:45;;;;;;;3.60;2.10;;;4.10;99.90;;;;;;5035421;28;20291;-53
2021/12/05 07:06:31;;;;;;;4.10;2.13;;;3.90;99.90;;;;;;4982533;28;20213;-51
2021/12/05 07:09:05;;;;;;;2.37;2.17;;;3.90;99.90;;;;;;4983649;28;20660;-51
2021/12/05 07:11:40;;;;;;;2.77;2.03;;;4.00;99.90;;;;;;4983631;28;20210;-54
2021/12/05 07:17:03;;;;;;;2.70;2.20;;;4.00;99.90;;;;;;4979751;28;20257;-53
2021/12/05 07:22:17;;;;;;;3.63;2.53;;;4.20;99.90;;;;;;4981184;28;20213;-54
2021/12/05 07:25:00;;;;;;;3.33;1.70;;;4.20;99.90;;;;;;4983007;28;20308;-53
2021/12/05 07:41:45;;;;;;;2.67;2.30;;;4.30;99.90;;;;;;5039647;28;20623;-53
2021/12/05 07:44:11;;;;;;;3.23;2.50;;;4.20;99.90;;;;;;5036525;28;20232;-54
2021/12/05 07:46:38;;;;;;;5.10;2.40;;;4.40;99.90;;;;;;5037071;28;20222;-53
2021/12/05 07:49:09;;;;;;;4.33;2.47;;;4.30;99.90;;;;;;5037684;28;20235;-53
2021/12/05 07:51:41;;;;;;;3.63;2.60;;;4.30;99.90;;;;;;5037380;28;20718;-53
2021/12/05 07:57:31;;;;;;;2.80;2.37;;;4.40;99.90;;;;;;5039950;28;20232;-53
2021/12/05 08:16:27;;;;;;;4.37;2.70;;;4.40;99.90;;;;;;5036782;28;20575;-55
2021/12/05 08:18:54;;;;;;;4.57;2.97;;;4.40;99.90;;;;;;5035848;28;20200;-52
2021/12/05 08:21:21;;;;;;;3.30;2.87;;;4.50;99.90;;;;;;5036088;28;20633;-55
2021/12/05 08:23:49;;;;;;;4.60;3.10;;;4.40;99.90;;;;;;5037122;28;20660;-54
2021/12/05 08:26:25;;;;;;;3.83;3.30;;;4.40;99.90;;;;;;5035282;28;20248;-54
2021/12/05 08:36:55;;;;;;;4.33;2.97;;;4.50;99.90;;;;;;5036503;28;20204;-52
2021/12/05 09:26:17;;;;;;;5.37;3.90;;;4.70;99.90;;;;;;4997121;28;20659;-51
2021/12/05 10:07:04;;;;;;;5.53;3.57;;;4.80;99.90;;;;;;5040618;28;20209;-53
2021/12/05 10:09:59;;;;;;;4.57;3.70;;;4.90;99.90;;;;;;5037705;28;20313;-50
2021/12/05 10:37:48;;;;;;;4.97;3.70;;;5.10;99.90;;;;;;5030009;28;20199;-53
2021/12/05 10:40:20;;;;;;;4.13;3.50;;;5.10;99.90;;;;;;5033230;28;20297;-53
2021/12/05 10:42:51;;;;;;;5.53;4.17;;;5.10;99.90;;;;;;5035321;28;20305;-51
2021/12/05 10:45:27;;;;;;;5.17;3.57;;;5.10;99.90;;;;;;5031443;28;20289;-51
2021/12/05 10:47:56;;;;;;;4.90;3.70;;;5.00;99.90;;;;;;5027280;28;20326;-52
2021/12/05 10:50:31;;;;;;;4.03;3.50;;;4.90;99.90;;;;;;5035645;28;20228;-56
2021/12/05 10:53:25;;;;;;;5.00;3.60;;;4.90;99.90;;;;;;5037455;28;20191;-56
2021/12/05 10:55:57;;;;;;;3.77;3.40;;;5.00;99.90;;;;;;5037381;28;20204;-54
2021/12/05 10:58:29;;;;;;;6.33;3.70;;;5.10;99.90;;;;;;5035061;28;20235;-52
2021/12/05 11:01:10;;;;;;;5.13;3.30;;;5.20;99.90;;;;;;5038183;28;20211;-54
2021/12/05 11:03:38;;;;;;;3.80;3.40;;;5.10;99.90;;;;;;5035283;28;20228;-53
2021/12/05 11:06:27;;;;;;;6.60;3.53;;;5.00;99.90;;;;;;5039002;28;20240;-52
2021/12/05 11:09:11;;;;;;;5.20;3.70;;;5.00;99.90;;;;;;5037943;28;20270;-54
2021/12/05 11:11:40;;;;;;;3.90;3.20;;;5.10;99.90;;;;;;5037305;28;20291;-52
2021/12/05 11:14:17;;;;;;;5.57;3.47;;;5.00;99.90;;;;;;5039804;28;20522;-53
2021/12/05 11:16:56;;;;;;;5.20;4.13;;;5.10;99.90;;;;;;5036331;28;20236;-53
2021/12/05 11:19:46;;;;;;;5.00;3.80;;;5.10;99.90;;;;;;5039422;28;20208;-53
2021/12/05 11:22:16;;;;;;;5.13;3.83;;;5.10;99.90;;;;;;5039003;28;20327;-53
2021/12/05 11:25:02;;;;;;;5.27;3.37;;;5.10;99.90;;;;;;5037059;28;20208;-54
2021/12/05 11:27:37;;;;;;;6.57;4.47;;;5.10;99.90;;;;;;5022439;28;20515;-52
2021/12/05 11:30:13;;;;;;;8.03;4.47;;;5.10;99.90;;;;;;5035088;28;20564;-52
2021/12/05 11:32:48;;;;;;;4.83;4.33;;;5.10;99.90;;;;;;5034986;28;20666;-53
2021/12/05 11:35:27;;;;;;;6.27;4.00;;;5.20;99.90;;;;;;5039344;28;20208;-53
2021/12/05 11:38:15;;;;;;;5.23;3.43;;;5.30;99.90;;;;;;5038392;28;20200;-53
2021/12/05 11:40:44;;;;;;;6.13;3.67;;;5.20;99.90;;;;;;5032086;28;20232;-53
2021/12/05 11:43:25;;;;;;;4.50;3.77;;;5.30;99.90;;;;;;5035210;28;20285;-53
2021/12/05 11:46:11;;;;;;;4.70;3.80;;;5.40;99.90;;;;;;5032002;28;20358;-54
2021/12/05 11:49:08;;;;;;;3.90;3.50;;;5.50;99.90;;;;;;5026713;28;20347;-61
2021/12/05 11:51:53;;;;;;;4.90;3.50;;;5.40;99.90;;;;;;5036152;28;20196;-54
2021/12/05 11:54:43;;;;;;;3.97;3.50;;;5.50;99.90;;;;;;5034607;28;20254;-53
2021/12/05 11:57:27;;;;;;;4.73;3.57;;;5.60;99.90;;;;;;5036678;28;20681;-53
2021/12/05 12:00:10;;;;;;;3.90;3.43;;;5.50;99.90;;;;;;5036313;28;20200;-54
2021/12/05 12:02:40;;;;;;;7.77;3.57;;;5.70;99.90;;;;;;5035566;28;20208;-54
2021/12/05 12:05:17;;;;;;;4.50;3.93;;;5.90;99.90;;;;;;5032990;28;20318;-52
2021/12/05 12:08:07;;;;;;;5.17;3.87;;;5.90;99.90;;;;;;5033747;28;20204;-51
2021/12/05 12:10:37;;;;;;;4.53;3.53;;;5.80;99.90;;;;;;5020457;28;20227;-51
2021/12/05 12:13:13;;;;;;;4.20;3.37;;;5.80;99.90;;;;;;5035486;28;20207;-50
2021/12/05 12:15:44;;;;;;;4.27;2.90;;;5.60;99.90;;;;;;5017060;28;20265;-54
2021/12/05 12:18:19;;;;;;;3.30;2.80;;;5.40;99.90;;;;;;5035089;28;20222;-53
2021/12/05 12:20:47;;;;;;;3.20;2.90;;;5.60;99.90;;;;;;5036454;28;20324;-53
2021/12/05 12:23:18;;;;;;;4.10;3.70;;;5.50;99.90;;;;;;5035879;28;20317;-53
2021/12/05 12:25:48;;;;;;;6.17;3.70;;;5.40;99.90;;;;;;5038632;28;20303;-51
2021/12/05 12:28:17;;;;;;;5.10;3.50;;;5.60;99.90;;;;;;5038403;28;20303;-54
2021/12/05 12:30:52;;;;;;;5.13;3.87;;;5.60;99.90;;;;;;5037009;28;20571;-54
2021/12/05 12:33:34;;;;;;;4.40;3.57;;;5.60;99.90;;;;;;5033776;28;20626;-52
2021/12/05 12:36:02;;;;;;;4.93;3.73;;;5.70;99.90;;;;;;5034151;28;20224;-51
2021/12/05 12:38:29;;;;;;;6.33;3.47;;;5.80;99.90;;;;;;5035674;28;20211;-53
2021/12/05 12:41:10;;;;;;;3.87;3.30;;;6.00;99.90;;;;;;5035561;28;20293;-53
2021/12/05 12:43:40;;;;;;;3.90;3.03;;;6.00;99.90;;;;;;5036905;28;20196;-52
2021/12/05 12:46:26;;;;;;;4.30;3.33;;;6.00;99.90;;;;;;5017565;28;20215;-51
2021/12/05 12:49:16;;;;;;;4.20;3.63;;;5.90;99.90;;;;;;5037346;28;20199;-52
2021/12/05 12:51:56;;;;;;;3.87;3.33;;;5.90;99.90;;;;;;5031978;28;20259;-52
2021/12/05 12:54:28;;;;;;;5.17;3.27;;;5.90;99.90;;;;;;5038478;28;20196;-52
2021/12/05 12:57:23;;;;;;;3.70;3.30;;;5.70;99.90;;;;;;5035879;28;20209;-51
2021/12/05 13:00:15;;;;;;;3.23;2.93;;;5.50;99.90;;;;;;5034477;28;20241;-52
2021/12/05 13:11:19;;;;;;;4.40;3.60;;;5.60;99.90;;;;;;5034696;28;20558;-51
2021/12/05 13:14:01;;;;;;;4.73;3.13;;;5.70;99.90;;;;;;5034905;28;20231;-53
2021/12/05 13:16:32;;;;;;;3.90;3.50;;;5.90;99.90;;;;;;5033039;28;20204;-51
2021/12/05 13:19:07;;;;;;;3.80;3.33;;;6.00;99.90;;;;;;5035057;28;20290;-52
2021/12/05 13:21:39;;;;;;;4.30;2.70;;;5.90;99.90;;;;;;5034170;28;20252;-52
2021/12/05 13:24:27;;;;;;;3.20;2.87;;;5.80;99.90;;;;;;5039546;28;20208;-52
2021/12/05 13:27:06;;;;;;;3.10;2.80;;;5.70;99.90;;;;;;5035639;28;20228;-53
2021/12/05 13:29:46;;;;;;;4.10;2.77;;;5.70;99.90;;;;;;5037792;28;20196;-53
2021/12/05 13:32:25;;;;;;;2.97;2.70;;;5.70;99.90;;;;;;5036937;28;20253;-53
2021/12/05 13:35:01;;;;;;;3.40;3.10;;;5.60;99.90;;;;;;5035318;28;20203;-52
2021/12/05 13:37:42;;;;;;;3.70;3.13;;;5.70;99.90;;;;;;5036411;28;20244;-52
2021/12/05 13:40:26;;;;;;;3.77;2.83;;;5.80;99.90;;;;;;5033710;28;20227;-51
2021/12/05 13:43:05;;;;;;;3.33;2.80;;;5.80;99.90;;;;;;5033918;28;20330;-52
2021/12/05 13:45:37;;;;;;;4.73;3.40;;;5.50;99.90;;;;;;5034569;28;20848;-52
2021/12/05 13:48:07;;;;;;;3.87;2.80;;;5.70;99.90;;;;;;5033118;28;20203;-54
2021/12/05 13:50:51;;;;;;;3.03;2.73;;;5.60;99.90;;;;;;5036418;28;20232;-52
2021/12/05 13:53:21;;;;;;;3.03;2.67;;;5.90;99.90;;;;;;5034919;28;20196;-54
2021/12/05 13:56:01;;;;;;;3.53;3.07;;;5.90;99.90;;;;;;5036530;28;20290;-51
2021/12/05 14:01:11;;;;;;;3.27;2.90;;;6.00;99.90;;;;;;5036536;28;20223;-53
2021/12/05 14:03:58;;;;;;;4.97;2.87;;;5.80;99.90;;;;;;5034954;28;20210;-52
2021/12/05 14:06:53;;;;;;;4.60;2.70;;;5.90;99.90;;;;;;5035374;28;20303;-53
2021/12/05 14:09:20;;;;;;;4.30;3.07;;;6.10;99.90;;;;;;5035204;28;20192;-52
2021/12/05 14:11:54;;;;;;;2.90;2.60;;;6.10;99.90;;;;;;5036885;28;20196;-53
2021/12/05 14:14:38;;;;;;;3.53;2.97;;;6.20;99.90;;;;;;5038953;28;20212;-52
2021/12/05 14:17:15;;;;;;;3.97;3.13;;;6.20;99.90;;;;;;5036762;28;20218;-53
2021/12/05 14:19:44;;;;;;;4.00;3.10;;;6.00;99.90;;;;;;5037448;28;20209;-53
2021/12/05 14:22:13;;;;;;;2.93;2.60;;;6.10;99.90;;;;;;5036638;28;20243;-52
2021/12/05 14:24:45;;;;;;;3.40;2.70;;;6.10;99.90;;;;;;5035368;28;20212;-53
2021/12/05 14:27:16;;;;;;;5.00;3.20;;;6.10;99.90;;;;;;5041785;28;20303;-52
2021/12/05 14:29:44;;;;;;;4.03;2.57;;;6.10;99.90;;;;;;5037210;28;20634;-52
2021/12/05 14:32:22;;;;;;;3.03;2.47;;;6.10;99.90;;;;;;5029659;28;20235;-52
2021/12/05 14:35:05;;;;;;;2.90;2.63;;;6.10;99.90;;;;;;5041189;28;20288;-53
2021/12/05 14:37:35;;;;;;;3.00;2.63;;;6.20;99.90;;;;;;5038235;28;20212;-52
2021/12/05 14:40:11;;;;;;;2.47;2.20;;;6.10;99.90;;;;;;5040258;28;20625;-53
2021/12/05 14:42:45;;;;;;;3.57;2.57;;;6.00;99.90;;;;;;5041659;28;20204;-52
2021/12/05 14:45:18;;;;;;;3.97;2.67;;;6.10;99.90;;;;;;5041549;28;20224;-52
2021/12/05 14:47:46;;;;;;;3.20;2.40;;;6.10;99.90;;;;;;5037620;28;20218;-53
2021/12/05 14:50:17;;;;;;;3.70;3.13;;;6.20;99.90;;;;;;5038359;28;20256;-53
2021/12/05 14:52:47;;;;;;;3.43;2.53;;;6.30;99.90;;;;;;5040239;28;20243;-52
2021/12/05 14:55:18;;;;;;;4.27;2.93;;;6.30;99.90;;;;;;5037512;28;20232;-54
2021/12/05 14:58:01;;;;;;;3.63;2.77;;;6.20;99.90;;;;;;5039743;28;20307;-54
2021/12/05 15:00:35;;;;;;;4.47;3.33;;;6.10;99.90;;;;;;5038939;28;20629;-52
2021/12/05 15:03:08;;;;;;;4.03;3.40;;;6.10;99.90;;;;;;5040465;28;20516;-53
2021/12/05 15:05:38;;;;;;;4.50;3.67;;;6.20;99.90;;;;;;5041504;28;20327;-52
2021/12/05 15:08:10;;;;;;;4.20;3.30;;;6.20;99.90;;;;;;5041383;28;20246;-53
2021/12/05 15:10:41;;;;;;;4.23;3.50;;;6.20;99.90;;;;;;5038998;28;20748;-54
2021/12/05 15:13:09;;;;;;;4.53;3.77;;;6.30;99.90;;;;;;5039645;28;20219;-53
2021/12/05 15:15:37;;;;;;;4.77;3.90;;;6.30;99.90;;;;;;5039520;28;20193;-53
2021/12/05 15:18:04;;;;;;;5.17;3.67;;;6.30;99.90;;;;;;5040471;28;20286;-53
2021/12/05 15:20:35;;;;;;;5.37;4.07;;;6.40;99.90;;;;;;5040370;28;20211;-52
2021/12/05 15:23:08;;;;;;;5.90;4.40;;;6.40;99.90;;;;;;5038749;28;20205;-51
2021/12/05 15:25:38;;;;;;;6.97;5.03;;;6.30;99.90;;;;;;5038907;28;20204;-52
2021/12/05 15:28:10;;;;;;;7.13;5.53;;;6.20;99.90;;;;;;5036927;28;20239;-52
2021/12/05 15:30:40;;;;;;;8.50;5.97;;;6.20;99.90;;;;;;5038834;28;20315;-52
2021/12/05 15:33:15;;;;;;;7.97;6.13;;;6.20;99.90;;;;;;5038969;28;20199;-52
2021/12/05 15:35:43;;;;;;;7.60;6.03;;;6.20;99.90;;;;;;5038738;28;20203;-51
2021/12/05 15:38:15;;;;;;;6.50;5.80;;;6.30;99.90;;;;;;5038074;28;20291;-51
2021/12/05 15:40:45;;;;;;;7.73;5.77;;;6.30;99.90;;;;;;5039588;28;20228;-52
2021/12/05 15:43:15;;;;;;;6.47;5.57;;;6.30;99.90;;;;;;5038866;28;20212;-51
2021/12/05 15:45:45;;;;;;;7.03;6.07;;;6.30;99.90;;;;;;5038293;28;20197;-53
2021/12/05 15:48:22;;;;;;;7.03;5.77;;;6.30;99.90;;;;;;5038947;28;20252;-54
2021/12/05 15:50:52;;;;;;;8.20;5.90;;;6.20;99.90;;;;;;5037893;28;20289;-51
2021/12/05 15:53:21;;;;;;;7.67;6.67;;;6.30;99.90;;;;;;5037471;28;20250;-52
2021/12/05 15:55:57;;;;;;;8.97;5.67;;;6.30;99.90;;;;;;5038546;28;20249;-51
2021/12/05 15:58:44;;;;;;;7.73;6.27;;;6.30;99.90;;;;;;5036671;28;20647;-52
2021/12/05 16:01:19;;;;;;;7.80;6.07;;;6.30;99.90;;;;;;5039482;28;20211;-52
2021/12/05 16:03:53;;;;;;;8.03;6.37;;;6.30;99.90;;;;;;5036647;28;20204;-51
2021/12/05 16:06:29;;;;;;;8.13;6.50;;;6.30;99.90;;;;;;5038855;28;20218;-52
2021/12/05 16:08:57;;;;;;;7.37;6.47;;;6.30;99.90;;;;;;5038711;28;20258;-52
2021/12/05 16:11:24;;;;;;;9.93;7.30;;;6.20;99.90;;;;;;5039460;28;20209;-52
2021/12/05 16:13:53;;;;;;;9.13;6.87;;;6.30;99.90;;;;;;5036919;28;20210;-51
2021/12/05 16:16:24;;;;;;;8.93;6.47;;;6.30;99.90;;;;;;5037609;28;20890;-52
2021/12/05 16:18:55;;;;;;;8.83;6.47;;;6.30;99.90;;;;;;5039199;28;20210;-50
2021/12/05 16:21:26;;;;;;;6.77;5.50;;;6.40;99.90;;;;;;5036802;28;20688;-53
2021/12/05 16:23:55;;;;;;;6.60;5.90;;;6.30;99.90;;;;;;5037300;28;20202;-53
2021/12/05 16:26:27;;;;;;;7.17;5.70;;;6.30;99.90;;;;;;5019815;28;20289;-51
2021/12/05 16:29:01;;;;;;;7.37;5.40;;;6.10;99.90;;;;;;5036353;28;20208;-53
2021/12/05 16:31:32;;;;;;;8.63;5.70;;;6.10;99.90;;;;;;5036047;28;20234;-51
2021/12/05 16:34:02;;;;;;;7.27;5.93;;;6.10;99.90;;;;;;5034128;28;20209;-52
2021/12/05 16:36:34;;;;;;;6.63;5.13;;;6.10;99.90;;;;;;5035146;28;20410;-52
2021/12/05 16:39:14;;;;;;;7.57;5.67;;;6.20;99.90;;;;;;4339526;28;10000709;-50
2021/12/05 16:41:51;;;;;;;7.80;5.90;;;6.20;99.90;;;;;;5033710;28;20213;-52
2021/12/05 16:44:23;;;;;;;7.77;5.90;;;6.30;99.90;;;;;;5032162;28;20375;-51
2021/12/05 16:47:31;;;;;;;8.37;5.90;;;6.30;99.90;;;;;;5013850;28;20210;-53
2021/12/05 16:50:00;;;;;;;8.47;5.40;;;6.30;99.90;;;;;;5030788;28;20361;-51
2021/12/05 16:52:39;;;;;;;8.13;6.20;;;6.20;99.90;;;;;;5031184;28;20199;-52
2021/12/05 16:55:21;;;;;;;9.20;6.73;;;6.00;99.90;;;;;;5034293;28;20242;-51
2021/12/05 16:57:58;;;;;;;8.67;6.50;;;6.10;99.90;;;;;;5031668;28;20227;-51
2021/12/05 17:00:28;;;;;;;11.33;6.90;;;6.10;99.90;;;;;;5032410;28;20309;-51
2021/12/05 17:03:00;;;;;;;7.73;5.97;;;6.20;99.90;;;;;;5029736;28;20212;-52
2021/12/05 17:05:40;;;;;;;7.67;6.00;;;6.20;99.90;;;;;;5028905;28;20208;-52
2021/12/05 17:08:15;;;;;;;9.30;7.10;;;6.30;99.90;;;;;;5028272;28;20247;-52
2021/12/05 17:10:44;;;;;;;8.43;6.47;;;6.30;99.90;;;;;;5027139;28;20258;-51
2021/12/05 17:13:33;;;;;;;8.67;6.93;;;6.30;99.90;;;;;;5030326;28;20247;-51
2021/12/05 17:16:02;;;;;;;8.07;6.63;;;6.40;99.90;;;;;;5032564;28;20799;-49
2021/12/05 17:18:36;;;;;;;7.30;6.17;;;6.40;99.90;;;;;;5033683;28;20208;-50
2021/12/05 17:21:28;;;;;;;7.17;5.83;;;6.30;99.90;;;;;;5034042;28;20644;-53
2021/12/05 17:24:00;;;;;;;6.83;5.13;;;6.30;99.90;;;;;;5030063;28;20207;-50
2021/12/05 17:26:34;;;;;;;9.63;5.50;;;6.40;99.90;;;;;;5030155;28;20239;-50
2021/12/05 17:29:19;;;;;;;7.27;5.80;;;6.40;99.90;;;;;;5029249;28;20213;-50
2021/12/05 17:31:56;;;;;;;8.10;6.27;;;6.40;99.90;;;;;;5031803;28;20200;-50
2021/12/05 17:34:40;;;;;;;7.13;6.43;;;6.30;99.90;;;;;;5034853;28;20204;-52
2021/12/05 17:37:21;;;;;;;10.67;9.57;;;6.30;99.90;;;;;;5030063;28;20842;-51
2021/12/05 17:39:49;;;;;;;9.33;8.37;;;6.20;99.90;;;;;;5029495;28;20239;-50
2021/12/05 17:42:30;;;;;;;10.33;9.27;;;6.30;99.90;;;;;;5034153;28;20237;-53
2021/12/05 17:45:00;;;;;;;12.70;10.00;;;6.30;99.90;;;;;;5029581;28;20202;-52
2021/12/05 17:47:28;;;;;;;10.43;8.33;;;6.20;99.90;;;;;;5030743;28;20378;-52
2021/12/05 17:49:56;;;;;;;9.10;6.97;;;6.20;99.90;;;;;;5029084;28;20245;-50
2021/12/05 17:52:25;;;;;;;9.07;6.90;;;6.10;99.90;;;;;;5029000;28;20247;-52
2021/12/05 17:57:41;;;;;;;10.53;7.53;;;6.10;99.90;;;;;;5032223;28;20239;-51
2021/12/05 18:00:34;;;;;;;8.83;6.67;;;6.20;99.90;;;;;;5035989;28;20273;-51
2021/12/05 18:03:10;;;;;;;7.77;6.47;;;6.20;99.90;;;;;;5035722;28;20623;-51
2021/12/05 18:05:44;;;;;;;7.70;6.80;;;6.20;99.90;;;;;;5036576;28;20196;-52
2021/12/05 18:08:14;;;;;;;9.30;6.93;;;6.20;99.90;;;;;;5036080;28;20324;-52
2021/12/05 18:10:57;;;;;;;9.17;8.17;;;6.20;99.90;;;;;;5033703;28;20203;-50
2021/12/05 18:13:25;;;;;;;11.67;7.13;;;6.20;99.90;;;;;;5036406;28;21172;-53
2021/12/05 18:16:04;;;;;;;10.00;7.33;;;6.20;99.90;;;;;;5036614;28;20210;-52
2021/12/05 18:18:34;;;;;;;7.67;6.70;;;6.20;99.90;;;;;;5035380;28;20634;-53
2021/12/05 18:21:04;;;;;;;8.47;6.60;;;6.20;99.90;;;;;;5036999;28;20283;-51
2021/12/05 18:23:32;;;;;;;8.97;6.77;;;6.20;99.90;;;;;;5037086;28;20232;-52
2021/12/05 18:25:59;;;;;;;9.80;7.47;;;6.30;99.90;;;;;;5035449;28;20312;-50
2021/12/05 18:28:26;;;;;;;8.77;7.20;;;6.30;99.90;;;;;;5035685;28;20226;-52
2021/12/05 18:30:53;;;;;;;9.07;7.33;;;6.20;99.90;;;;;;5035742;28;20230;-50
2021/12/05 18:33:21;;;;;;;8.63;6.93;;;6.30;99.90;;;;;;5034942;28;20304;-52
2021/12/05 18:35:48;;;;;;;8.57;6.50;;;6.40;99.90;;;;;;5035451;28;20848;-51
2021/12/05 18:38:17;;;;;;;8.47;6.63;;;6.40;99.90;;;;;;5035985;28;20215;-52
2021/12/05 18:40:48;;;;;;;8.40;6.83;;;6.40;99.90;;;;;;5035037;28;20331;-53
2021/12/05 18:43:16;;;;;;;8.10;7.30;;;6.40;99.90;;;;;;5035412;28;21626;-52
2021/12/05 18:45:44;;;;;;;9.20;7.53;;;6.30;99.90;;;;;;5035009;28;20245;-54
2021/12/05 18:48:11;;;;;;;9.30;7.07;;;6.30;99.90;;;;;;5017908;28;20305;-51
2021/12/05 18:50:40;;;;;;;10.30;8.03;;;6.30;99.90;;;;;;5032982;28;20311;-51
2021/12/05 18:53:07;;;;;;;7.77;6.60;;;6.30;99.90;;;;;;5037004;28;20202;-51
2021/12/05 18:55:34;;;;;;;10.60;7.87;;;6.20;99.90;;;;;;5036010;28;20301;-51
2021/12/05 18:58:08;;;;;;;10.73;7.53;;;6.20;99.90;;;;;;5034359;28;20214;-52
2021/12/05 19:04:22;;;;;;;12.60;9.70;;;6.20;99.90;;;;;;5035203;28;20847;-49
2021/12/05 19:06:24;;;;;;;10.20;7.33;;;6.20;99.90;;;;;;5035074;28;20310;-52
2021/12/05 19:09:13;;;;;;;7.50;6.50;;;6.20;99.90;;;;;;5034138;28;20219;-52
2021/12/05 19:11:45;;;;;;;8.60;6.83;;;6.10;99.90;;;;;;5022341;28;20574;-50
2021/12/05 19:14:17;;;;;;;11.47;7.90;;;6.20;99.90;;;;;;5036245;28;20371;-51
2021/12/05 19:16:46;;;;;;;9.80;7.43;;;6.20;99.90;;;;;;5034782;28;20226;-50
2021/12/05 19:19:14;;;;;;;8.33;6.80;;;6.20;99.90;;;;;;5036930;28;20250;-53
2021/12/05 19:21:41;;;;;;;9.17;7.70;;;6.30;99.90;;;;;;5037133;28;20257;-52